createdAt,value
2023-03-16T00:03:04.834Z,5.77
2023-03-16T00:07:56.840Z,5.83
2023-03-16T00:12:48.842Z,6.10
2023-03-16T00:17:40.862Z,5.83
2023-03-16T00:22:33.199Z,5.03
2023-03-16T00:27:26.509Z,5.83
2023-03-16T00:32:21.227Z,4.83
2023-03-16T00:37:16.801Z,6.37
2023-03-16T00:42:10.767Z,5.80
2023-03-16T00:47:03.969Z,6.63
2023-03-16T00:51:55.954Z,6.10
2023-03-16T00:56:48.553Z,5.60
2023-03-16T01:01:40.529Z,4.03
2023-03-16T01:06:32.532Z,5.10
2023-03-16T01:11:24.762Z,5.37
2023-03-16T01:16:23.249Z,5.20
2023-03-16T01:21:15.871Z,5.53
2023-03-16T01:26:08.444Z,5.57
2023-03-16T01:31:06.814Z,5.03
2023-03-16T01:36:06.650Z,5.40
2023-03-16T01:41:08.755Z,6.93
2023-03-16T01:46:06.958Z,8.10
2023-03-16T01:51:14.670Z,6.30
2023-03-16T01:56:09.959Z,5.73
2023-03-16T02:01:02.588Z,7.17
2023-03-16T02:11:47.681Z,7.47
2023-03-16T02:16:41.463Z,9.40
2023-03-16T02:21:42.344Z,14.70
2023-03-16T02:26:47.672Z,8.07
2023-03-16T02:31:46.959Z,6.60
2023-03-16T02:36:41.771Z,6.20
2023-03-16T02:41:34.744Z,5.43
2023-03-16T02:46:28.718Z,6.07
2023-03-16T02:51:20.869Z,6.53
2023-03-16T02:56:13.104Z,6.13
2023-03-16T03:01:05.492Z,6.07
2023-03-16T03:05:59.535Z,6.60
2023-03-16T03:10:51.823Z,6.23
2023-03-16T03:15:44.444Z,6.10
2023-03-16T03:20:36.732Z,6.50
2023-03-16T03:25:29.088Z,6.93
2023-03-16T03:30:24.354Z,6.20
2023-03-16T03:35:16.679Z,5.90
2023-03-16T03:40:12.173Z,6.97
2023-03-16T03:45:06.349Z,7.10
2023-03-16T03:49:59.591Z,6.83
2023-03-16T03:54:52.076Z,6.50
2023-03-16T03:59:44.093Z,6.70
2023-03-16T04:04:54.647Z,7.57
2023-03-16T04:09:46.974Z,5.77
2023-03-16T04:14:51.760Z,7.10
2023-03-16T04:19:45.263Z,6.70
2023-03-16T04:24:40.472Z,7.80
2023-03-16T04:29:32.949Z,7.43
2023-03-16T04:34:25.016Z,7.27
2023-03-16T04:39:21.520Z,7.57
2023-03-16T04:44:14.760Z,7.97
2023-03-16T04:49:09.648Z,9.10
2023-03-16T04:54:03.226Z,10.37
2023-03-16T04:59:00.456Z,8.90
2023-03-16T05:03:59.560Z,7.77
2023-03-16T05:08:52.619Z,8.60
2023-03-16T05:13:44.754Z,8.17
2023-03-16T05:18:36.791Z,8.47
2023-03-16T05:23:29.227Z,8.53
2023-03-16T05:28:25.973Z,8.77
2023-03-16T05:33:39.224Z,8.50
2023-03-16T05:38:36.736Z,8.80
2023-03-16T05:43:32.372Z,15.73
2023-03-16T05:48:27.749Z,11.50
2023-03-16T05:53:29.038Z,9.70
2023-03-16T05:58:29.681Z,10.63
2023-03-16T06:03:22.786Z,10.70
2023-03-16T06:08:16.278Z,9.90
2023-03-16T06:13:12.061Z,8.47
2023-03-16T06:18:04.608Z,6.93
2023-03-16T06:22:56.902Z,6.83
2023-03-16T06:27:49.607Z,7.17
2023-03-16T06:32:45.343Z,7.10
2023-03-16T06:37:37.455Z,6.80
2023-03-16T06:42:45.670Z,6.23
2023-03-16T06:47:43.673Z,7.40
2023-03-16T06:52:36.745Z,6.97
2023-03-16T06:57:29.045Z,6.77
2023-03-16T07:02:23.598Z,5.87
2023-03-16T07:07:17.447Z,4.50
2023-03-16T07:12:10.112Z,6.03
2023-03-16T07:17:03.103Z,9.80
2023-03-16T07:21:56.294Z,4.40
2023-03-16T07:26:49.228Z,5.57
2023-03-16T07:31:50.225Z,3.63
2023-03-16T07:36:48.829Z,4.67
2023-03-16T07:41:41.736Z,4.13
2023-03-16T07:46:41.579Z,4.73
2023-03-16T07:51:34.099Z,4.50
2023-03-16T07:56:29.721Z,4.17
2023-03-16T08:01:26.179Z,3.57
2023-03-16T08:06:18.730Z,3.63
2023-03-16T08:11:11.361Z,3.90
2023-03-16T08:16:16.705Z,4.40
2023-03-16T08:21:11.690Z,4.17
2023-03-16T08:26:08.780Z,3.77
2023-03-16T08:31:01.498Z,3.37
2023-03-16T08:36:07.360Z,3.80
2023-03-16T08:41:00.187Z,3.53
2023-03-16T08:45:52.533Z,3.87
2023-03-16T08:50:49.005Z,3.40
2023-03-16T08:55:41.708Z,3.47
2023-03-16T09:00:34.209Z,3.20
2023-03-16T09:05:26.325Z,2.97
2023-03-16T09:10:18.972Z,2.70
2023-03-16T09:15:15.026Z,2.03
2023-03-16T09:20:21.886Z,1.87
2023-03-16T09:25:14.578Z,2.13
2023-03-16T09:30:08.012Z,1.80
2023-03-16T09:35:00.392Z,1.30
2023-03-16T09:39:55.910Z,1.97
2023-03-16T09:45:34.381Z,1.50
2023-03-16T09:50:47.684Z,1.67
2023-03-16T09:55:43.272Z,1.50
2023-03-16T10:00:41.893Z,1.37
2023-03-16T10:06:14.636Z,1.50
2023-03-16T10:21:56.464Z,1.30
2023-03-16T10:27:00.221Z,1.30
2023-03-16T10:31:54.526Z,1.30
2023-03-16T10:36:47.836Z,1.20
2023-03-16T10:41:43.992Z,1.53
2023-03-16T10:46:40.650Z,1.25
2023-03-16T10:51:36.508Z,1.23
2023-03-16T10:56:35.482Z,1.47
2023-03-16T11:01:29.293Z,1.40
2023-03-16T11:06:32.242Z,1.47
2023-03-16T11:11:29.605Z,1.50
2023-03-16T11:16:45.733Z,1.30
2023-03-16T11:21:54.865Z,1.10
2023-03-16T11:26:54.335Z,1.53
2023-03-16T11:32:12.314Z,1.73
2023-03-16T11:37:13.969Z,1.50
2023-03-16T11:42:31.381Z,1.43
2023-03-16T11:47:33.889Z,1.07
2023-03-16T11:52:49.390Z,1.17
2023-03-16T11:58:07.335Z,1.30
2023-03-16T12:03:27.499Z,1.00
2023-03-16T12:08:25.662Z,0.80
2023-03-16T12:13:36.196Z,1.10
2023-03-16T12:18:49.052Z,1.37
2023-03-16T12:23:50.612Z,1.20
2023-03-16T12:28:45.131Z,1.03
2023-03-16T12:33:50.066Z,0.80
2023-03-16T12:39:05.272Z,0.93
2023-03-16T12:44:18.963Z,1.40
2023-03-16T12:49:13.446Z,1.40
2023-03-16T12:54:06.273Z,1.70
2023-03-16T12:59:01.670Z,1.00
2023-03-16T13:04:09.339Z,1.07
2023-03-16T13:09:04.662Z,1.23
2023-03-16T13:14:02.679Z,1.00
2023-03-16T13:18:54.904Z,1.17
2023-03-16T13:23:59.427Z,1.27
2023-03-16T13:28:54.405Z,1.20
2023-03-16T13:33:48.230Z,1.40
2023-03-16T13:38:40.464Z,1.10
2023-03-16T13:43:35.740Z,0.90
2023-03-16T13:48:27.819Z,1.63
2023-03-16T13:53:25.808Z,1.70
2023-03-16T13:58:26.619Z,1.43
2023-03-16T14:03:22.399Z,1.50
2023-03-16T14:08:23.910Z,1.90
2023-03-16T14:13:28.188Z,1.77
2023-03-16T14:18:23.355Z,1.57
2023-03-16T14:23:28.629Z,1.40
2023-03-16T14:28:27.681Z,1.63
2023-03-16T14:33:31.728Z,2.10
2023-03-16T14:38:33.065Z,1.60
2023-03-16T14:43:33.789Z,1.97
2023-03-16T14:48:26.726Z,1.80
2023-03-16T14:53:18.757Z,1.50
2023-03-16T14:58:10.717Z,1.60
2023-03-16T15:03:10.899Z,1.83
2023-03-16T15:08:04.227Z,2.83
2023-03-16T15:13:04.399Z,2.40
2023-03-16T15:17:56.430Z,1.70
2023-03-16T15:22:49.375Z,7.80
2023-03-16T15:27:41.678Z,2.27
2023-03-16T15:32:33.851Z,2.00
2023-03-16T15:37:27.833Z,2.10
2023-03-16T15:42:20.029Z,2.17
2023-03-16T15:47:12.430Z,2.70
2023-03-16T15:52:08.808Z,2.97
2023-03-16T15:57:03.304Z,2.63
2023-03-16T16:01:55.408Z,3.13
2023-03-16T16:06:48.042Z,3.43
2023-03-16T16:11:41.407Z,3.70
2023-03-16T16:16:34.336Z,2.93
2023-03-16T16:21:32.118Z,3.00
2023-03-16T16:26:48.320Z,3.13
2023-03-16T16:31:42.179Z,3.13
2023-03-16T16:36:34.282Z,2.40
2023-03-16T16:41:31.048Z,3.57
2023-03-16T16:46:26.492Z,2.93
2023-03-16T16:51:23.279Z,2.90
2023-03-16T16:56:17.517Z,3.33
2023-03-16T17:01:15.823Z,3.40
2023-03-16T17:06:16.965Z,4.10
2023-03-16T17:11:22.888Z,3.10
2023-03-16T17:16:16.952Z,3.17
2023-03-16T17:21:13.879Z,2.87
2023-03-16T17:26:25.154Z,3.30
2023-03-16T17:31:21.649Z,4.10
2023-03-16T17:36:17.553Z,3.60
2023-03-16T17:41:33.080Z,3.00
2023-03-16T17:46:28.403Z,3.17
2023-03-16T17:51:21.759Z,3.80
2023-03-16T17:56:19.341Z,4.23
2023-03-16T18:01:12.387Z,4.67
2023-03-16T18:06:05.215Z,4.20
2023-03-16T18:11:02.727Z,3.93
2023-03-16T18:15:56.158Z,9.93
2023-03-16T18:20:50.926Z,3.50
2023-03-16T18:25:45.104Z,3.60
2023-03-16T18:30:39.050Z,8.47
2023-03-16T18:35:32.064Z,7.27
2023-03-16T18:40:27.569Z,6.67
2023-03-16T18:45:20.437Z,6.10
2023-03-16T18:50:39.488Z,4.37
2023-03-16T18:55:32.659Z,3.53
2023-03-16T19:00:29.696Z,4.37
2023-03-16T19:05:31.748Z,5.30
2023-03-16T19:10:31.783Z,4.20
2023-03-16T19:15:26.654Z,6.40
2023-03-16T19:20:21.504Z,3.07
2023-03-16T19:25:31.176Z,4.47
2023-03-16T19:30:31.180Z,3.13
2023-03-16T19:35:33.835Z,3.03
2023-03-16T19:40:36.918Z,4.20
2023-03-16T19:45:34.002Z,4.10
2023-03-16T19:50:27.695Z,3.57
2023-03-16T19:55:23.297Z,4.90
2023-03-16T20:00:25.358Z,3.53
2023-03-16T20:05:23.728Z,3.23
2023-03-16T20:10:22.375Z,3.37
2023-03-16T20:15:17.271Z,4.00
2023-03-16T20:20:21.456Z,3.50
2023-03-16T20:25:14.007Z,7.30
2023-03-16T20:30:18.773Z,6.53
2023-03-16T20:35:18.775Z,6.10
2023-03-16T20:40:11.518Z,2.70
2023-03-16T20:45:19.121Z,2.90
2023-03-16T20:50:24.225Z,2.80
2023-03-16T20:55:18.284Z,3.13
2023-03-16T21:00:28.838Z,3.40
2023-03-16T21:05:22.366Z,3.83
2023-03-16T21:10:22.325Z,3.20
2023-03-16T21:15:28.068Z,3.27
2023-03-16T21:20:22.513Z,3.47
2023-03-16T21:25:20.657Z,2.83
2023-03-16T21:30:35.360Z,3.67
2023-03-16T21:35:37.414Z,3.17
2023-03-16T21:40:29.708Z,3.07
2023-03-16T21:45:21.966Z,2.60
2023-03-16T21:50:19.045Z,3.10
2023-03-16T21:55:23.667Z,3.27
2023-03-16T22:00:18.859Z,3.27
2023-03-16T22:05:39.830Z,3.37
2023-03-16T22:10:31.833Z,4.07
2023-03-16T22:15:25.211Z,3.60
2023-03-16T22:20:20.809Z,3.80
2023-03-16T22:25:18.384Z,4.13
2023-03-16T22:30:21.527Z,4.00
2023-03-16T22:35:34.294Z,4.50
2023-03-16T22:40:30.374Z,3.87
2023-03-16T22:45:25.698Z,4.53
2023-03-16T22:50:20.748Z,4.30
2023-03-16T22:55:19.658Z,4.90
2023-03-16T23:00:14.283Z,4.07
2023-03-16T23:05:29.766Z,4.30
2023-03-16T23:10:25.647Z,4.03
2023-03-16T23:15:23.964Z,4.50
2023-03-16T23:20:25.577Z,4.43
2023-03-16T23:25:17.613Z,4.80
2023-03-16T23:30:18.692Z,4.10
2023-03-16T23:35:31.111Z,4.30
2023-03-16T23:40:25.147Z,4.00
2023-03-16T23:45:25.261Z,4.10
2023-03-16T23:50:24.049Z,4.50
2023-03-16T23:55:17.898Z,4.17
